sensor_id;sensor_type;location;lat;lon;timestamp;P1;durP1;ratioP1;P2;durP2;ratioP2
9094;SDS011;4583;49.796;9.902;2022-08-02T00:06:26;3.33;;;3.03;;
9094;SDS011;4583;49.796;9.902;2022-08-02T00:16:28;3.73;;;3.20;;
9094;SDS011;4583;49.796;9.902;2022-08-02T00:26:38;4.60;;;3.70;;
9094;SDS011;4583;49.796;9.902;2022-08-02T00:36:40;3.47;;;3.17;;
9094;SDS011;4583;49.796;9.902;2022-08-02T00:46:42;5.13;;;3.33;;
9094;SDS011;4583;49.796;9.902;2022-08-02T00:56:44;4.50;;;3.10;;
9094;SDS011;4583;49.796;9.902;2022-08-02T01:06:51;4.00;;;2.90;;
9094;SDS011;4583;49.796;9.902;2022-08-02T01:16:58;4.00;;;2.80;;
9094;SDS011;4583;49.796;9.902;2022-08-02T01:37:37;3.10;;;2.80;;
9094;SDS011;4583;49.796;9.902;2022-08-02T01:47:55;3.20;;;2.90;;
9094;SDS011;4583;49.796;9.902;2022-08-02T01:58:02;3.37;;;3.07;;
9094;SDS011;4583;49.796;9.902;2022-08-02T02:08:06;4.80;;;2.90;;
9094;SDS011;4583;49.796;9.902;2022-08-02T02:18:09;2.80;;;2.60;;
9094;SDS011;4583;49.796;9.902;2022-08-02T02:28:21;3.50;;;2.60;;
9094;SDS011;4583;49.796;9.902;2022-08-02T02:38:30;3.20;;;2.90;;
9094;SDS011;4583;49.796;9.902;2022-08-02T02:48:34;2.83;;;2.53;;
9094;SDS011;4583;49.796;9.902;2022-08-02T02:58:37;2.83;;;2.63;;
9094;SDS011;4583;49.796;9.902;2022-08-02T03:08:39;3.37;;;3.00;;
9094;SDS011;4583;49.796;9.902;2022-08-02T03:18:42;5.53;;;4.10;;
9094;SDS011;4583;49.796;9.902;2022-08-02T03:28:44;4.07;;;2.57;;
9094;SDS011;4583;49.796;9.902;2022-08-02T03:38:47;2.80;;;2.60;;
9094;SDS011;4583;49.796;9.902;2022-08-02T03:48:51;5.30;;;2.80;;
9094;SDS011;4583;49.796;9.902;2022-08-02T03:59:10;5.60;;;2.57;;
9094;SDS011;4583;49.796;9.902;2022-08-02T04:09:13;4.27;;;2.40;;
9094;SDS011;4583;49.796;9.902;2022-08-02T04:19:18;5.93;;;2.77;;
9094;SDS011;4583;49.796;9.902;2022-08-02T04:29:31;3.47;;;2.77;;
9094;SDS011;4583;49.796;9.902;2022-08-02T04:39:34;4.97;;;3.03;;
9094;SDS011;4583;49.796;9.902;2022-08-02T04:49:35;3.40;;;2.40;;
9094;SDS011;4583;49.796;9.902;2022-08-02T04:59:37;3.20;;;2.50;;
9094;SDS011;4583;49.796;9.902;2022-08-02T05:09:39;9.83;;;3.10;;
9094;SDS011;4583;49.796;9.902;2022-08-02T05:19:41;16.83;;;3.50;;
9094;SDS011;4583;49.796;9.902;2022-08-02T05:29:43;5.87;;;3.23;;
9094;SDS011;4583;49.796;9.902;2022-08-02T05:39:53;3.27;;;2.37;;
9094;SDS011;4583;49.796;9.902;2022-08-02T05:49:56;3.43;;;2.93;;
9094;SDS011;4583;49.796;9.902;2022-08-02T06:00:08;8.40;;;2.80;;
9094;SDS011;4583;49.796;9.902;2022-08-02T06:10:12;5.43;;;2.80;;
9094;SDS011;4583;49.796;9.902;2022-08-02T06:20:15;2.93;;;2.50;;
9094;SDS011;4583;49.796;9.902;2022-08-02T06:30:17;3.03;;;2.40;;
9094;SDS011;4583;49.796;9.902;2022-08-02T06:40:23;4.90;;;2.70;;
9094;SDS011;4583;49.796;9.902;2022-08-02T06:50:45;3.07;;;2.23;;
9094;SDS011;4583;49.796;9.902;2022-08-02T07:00:47;14.70;;;2.80;;
9094;SDS011;4583;49.796;9.902;2022-08-02T07:10:49;6.50;;;2.20;;
9094;SDS011;4583;49.796;9.902;2022-08-02T07:20:51;4.70;;;2.33;;
9094;SDS011;4583;49.796;9.902;2022-08-02T07:30:53;9.67;;;3.10;;
9094;SDS011;4583;49.796;9.902;2022-08-02T07:40:54;11.47;;;4.20;;
9094;SDS011;4583;49.796;9.902;2022-08-02T07:50:56;10.70;;;2.10;;
9094;SDS011;4583;49.796;9.902;2022-08-02T08:00:58;4.20;;;2.30;;
9094;SDS011;4583;49.796;9.902;2022-08-02T08:11:01;4.77;;;2.50;;
9094;SDS011;4583;49.796;9.902;2022-08-02T08:21:03;3.57;;;2.20;;
9094;SDS011;4583;49.796;9.902;2022-08-02T08:31:06;6.07;;;2.60;;
9094;SDS011;4583;49.796;9.902;2022-08-02T08:41:08;1.80;;;1.63;;
9094;SDS011;4583;49.796;9.902;2022-08-02T08:51:10;6.27;;;2.10;;
9094;SDS011;4583;49.796;9.902;2022-08-02T09:01:18;4.87;;;1.63;;
9094;SDS011;4583;49.796;9.902;2022-08-02T09:11:24;2.80;;;1.90;;
9094;SDS011;4583;49.796;9.902;2022-08-02T09:21:32;2.83;;;2.00;;
9094;SDS011;4583;49.796;9.902;2022-08-02T09:31:36;2.20;;;1.60;;
9094;SDS011;4583;49.796;9.902;2022-08-02T09:41:49;2.37;;;1.63;;
9094;SDS011;4583;49.796;9.902;2022-08-02T09:51:52;1.77;;;1.67;;
9094;SDS011;4583;49.796;9.902;2022-08-02T10:01:55;2.57;;;1.50;;
9094;SDS011;4583;49.796;9.902;2022-08-02T10:12:04;1.67;;;1.57;;
9094;SDS011;4583;49.796;9.902;2022-08-02T10:22:10;4.13;;;2.57;;
9094;SDS011;4583;49.796;9.902;2022-08-02T10:32:25;1.80;;;1.70;;
9094;SDS011;4583;49.796;9.902;2022-08-02T10:42:42;5.70;;;1.60;;
9094;SDS011;4583;49.796;9.902;2022-08-02T10:52:45;1.50;;;1.40;;
9094;SDS011;4583;49.796;9.902;2022-08-02T11:02:51;4.10;;;1.30;;
9094;SDS011;4583;49.796;9.902;2022-08-02T11:12:58;2.50;;;1.50;;
9094;SDS011;4583;49.796;9.902;2022-08-02T11:33:47;5.17;;;2.33;;
9094;SDS011;4583;49.796;9.902;2022-08-02T11:43:54;3.13;;;1.60;;
9094;SDS011;4583;49.796;9.902;2022-08-02T11:53:56;1.80;;;1.17;;
9094;SDS011;4583;49.796;9.902;2022-08-02T12:03:58;1.30;;;1.20;;
9094;SDS011;4583;49.796;9.902;2022-08-02T12:14:01;2.80;;;1.30;;
9094;SDS011;4583;49.796;9.902;2022-08-02T12:24:04;4.18;;;1.23;;
9094;SDS011;4583;49.796;9.902;2022-08-02T12:34:10;4.88;;;1.40;;
9094;SDS011;4583;49.796;9.902;2022-08-02T12:44:17;8.10;;;1.50;;
9094;SDS011;4583;49.796;9.902;2022-08-02T12:54:21;2.72;;;1.30;;
9094;SDS011;4583;49.796;9.902;2022-08-02T13:04:32;1.80;;;1.48;;
9094;SDS011;4583;49.796;9.902;2022-08-02T13:14:34;1.40;;;1.30;;
9094;SDS011;4583;49.796;9.902;2022-08-02T13:24:42;2.38;;;1.50;;
9094;SDS011;4583;49.796;9.902;2022-08-02T13:34:56;1.60;;;1.50;;
9094;SDS011;4583;49.796;9.902;2022-08-02T13:44:59;1.63;;;1.20;;
9094;SDS011;4583;49.796;9.902;2022-08-02T13:55:14;4.93;;;1.30;;
9094;SDS011;4583;49.796;9.902;2022-08-02T14:05:15;1.40;;;1.30;;
9094;SDS011;4583;49.796;9.902;2022-08-02T14:15:37;3.10;;;1.55;;
9094;SDS011;4583;49.796;9.902;2022-08-02T14:25:39;3.47;;;1.90;;
9094;SDS011;4583;49.796;9.902;2022-08-02T14:35:41;3.33;;;1.60;;
9094;SDS011;4583;49.796;9.902;2022-08-02T14:45:43;2.53;;;2.25;;
9094;SDS011;4583;49.796;9.902;2022-08-02T14:55:44;3.75;;;2.65;;
9094;SDS011;4583;49.796;9.902;2022-08-02T15:05:46;3.88;;;3.58;;
9094;SDS011;4583;49.796;9.902;2022-08-02T15:15:49;2.80;;;1.88;;
9094;SDS011;4583;49.796;9.902;2022-08-02T15:25:50;2.35;;;1.58;;
9094;SDS011;4583;49.796;9.902;2022-08-02T15:35:52;1.52;;;1.42;;
9094;SDS011;4583;49.796;9.902;2022-08-02T15:45:54;3.33;;;3.03;;
9094;SDS011;4583;49.796;9.902;2022-08-02T15:55:56;4.88;;;1.70;;
9094;SDS011;4583;49.796;9.902;2022-08-02T16:06:09;4.60;;;1.50;;
9094;SDS011;4583;49.796;9.902;2022-08-02T16:16:10;1.58;;;1.40;;
9094;SDS011;4583;49.796;9.902;2022-08-02T16:26:12;2.95;;;1.50;;
9094;SDS011;4583;49.796;9.902;2022-08-02T16:36:14;2.45;;;1.60;;
9094;SDS011;4583;49.796;9.902;2022-08-02T16:46:19;1.85;;;1.60;;
9094;SDS011;4583;49.796;9.902;2022-08-02T16:56:21;2.20;;;1.73;;
9094;SDS011;4583;49.796;9.902;2022-08-02T17:06:23;2.10;;;1.70;;
9094;SDS011;4583;49.796;9.902;2022-08-02T17:16:27;4.37;;;2.00;;
9094;SDS011;4583;49.796;9.902;2022-08-02T17:26:29;2.13;;;1.93;;
9094;SDS011;4583;49.796;9.902;2022-08-02T17:36:31;2.63;;;1.90;;
9094;SDS011;4583;49.796;9.902;2022-08-02T17:46:32;1.83;;;1.67;;
9094;SDS011;4583;49.796;9.902;2022-08-02T17:56:34;2.80;;;1.70;;
9094;SDS011;4583;49.796;9.902;2022-08-02T18:06:46;3.03;;;1.77;;
9094;SDS011;4583;49.796;9.902;2022-08-02T18:16:50;3.00;;;1.67;;
9094;SDS011;4583;49.796;9.902;2022-08-02T18:26:51;1.73;;;1.60;;
9094;SDS011;4583;49.796;9.902;2022-08-02T18:36:53;1.60;;;1.50;;
9094;SDS011;4583;49.796;9.902;2022-08-02T18:46:55;1.80;;;1.70;;
9094;SDS011;4583;49.796;9.902;2022-08-02T18:56:59;3.20;;;1.90;;
9094;SDS011;4583;49.796;9.902;2022-08-02T19:07:04;5.00;;;1.77;;
9094;SDS011;4583;49.796;9.902;2022-08-02T19:17:08;4.07;;;2.00;;
9094;SDS011;4583;49.796;9.902;2022-08-02T19:27:30;2.27;;;1.60;;
9094;SDS011;4583;49.796;9.902;2022-08-02T19:37:33;4.07;;;2.23;;
9094;SDS011;4583;49.796;9.902;2022-08-02T19:47:39;3.47;;;2.00;;
9094;SDS011;4583;49.796;9.902;2022-08-02T19:57:54;9.13;;;2.50;;
9094;SDS011;4583;49.796;9.902;2022-08-02T20:07:57;4.60;;;2.33;;
9094;SDS011;4583;49.796;9.902;2022-08-02T20:17:59;2.97;;;2.10;;
9094;SDS011;4583;49.796;9.902;2022-08-02T20:28:01;3.17;;;2.20;;
9094;SDS011;4583;49.796;9.902;2022-08-02T20:38:05;2.70;;;2.00;;
9094;SDS011;4583;49.796;9.902;2022-08-02T20:48:12;3.27;;;2.13;;
9094;SDS011;4583;49.796;9.902;2022-08-02T20:58:15;3.73;;;2.40;;
9094;SDS011;4583;49.796;9.902;2022-08-02T21:08:19;5.13;;;1.83;;
9094;SDS011;4583;49.796;9.902;2022-08-02T21:18:21;6.20;;;2.20;;
9094;SDS011;4583;49.796;9.902;2022-08-02T21:28:41;5.73;;;2.63;;
9094;SDS011;4583;49.796;9.902;2022-08-02T21:38:45;3.20;;;2.17;;
9094;SDS011;4583;49.796;9.902;2022-08-02T21:48:48;5.77;;;2.70;;
9094;SDS011;4583;49.796;9.902;2022-08-02T21:58:50;4.93;;;2.17;;
9094;SDS011;4583;49.796;9.902;2022-08-02T22:08:52;4.70;;;2.23;;
9094;SDS011;4583;49.796;9.902;2022-08-02T22:18:55;4.80;;;2.20;;
9094;SDS011;4583;49.796;9.902;2022-08-02T22:29:00;7.17;;;2.40;;
9094;SDS011;4583;49.796;9.902;2022-08-02T22:39:03;4.87;;;2.37;;
9094;SDS011;4583;49.796;9.902;2022-08-02T22:49:19;6.70;;;2.37;;
9094;SDS011;4583;49.796;9.902;2022-08-02T22:59:41;2.97;;;2.03;;
9094;SDS011;4583;49.796;9.902;2022-08-02T23:09:43;3.43;;;2.10;;
9094;SDS011;4583;49.796;9.902;2022-08-02T23:19:44;3.40;;;2.23;;
9094;SDS011;4583;49.796;9.902;2022-08-02T23:29:52;5.50;;;2.37;;
9094;SDS011;4583;49.796;9.902;2022-08-02T23:39:54;4.97;;;2.07;;
9094;SDS011;4583;49.796;9.902;2022-08-02T23:49:55;4.10;;;2.30;;
9094;SDS011;4583;49.796;9.902;2022-08-02T23:59:57;2.93;;;2.20;;
